sensor_id;sensor_type;location;lat;lon;timestamp;pressure;altitude;pressure_sealevel;temperature;humidity
22964;BME280;11648;49.306;6.934;2023-05-24T00:00:21;98888.03;;;14.98;58.86
22964;BME280;11648;49.306;6.934;2023-05-24T00:02:48;98888.06;;;14.95;58.65
22964;BME280;11648;49.306;6.934;2023-05-24T00:05:15;98891.72;;;14.89;58.80
22964;BME280;11648;49.306;6.934;2023-05-24T00:07:44;98893.50;;;14.90;58.87
22964;BME280;11648;49.306;6.934;2023-05-24T00:10:11;98889.25;;;14.80;59.45
22964;BME280;11648;49.306;6.934;2023-05-24T00:12:37;98888.38;;;14.81;59.28
22964;BME280;11648;49.306;6.934;2023-05-24T00:15:05;98884.91;;;14.77;59.38
22964;BME280;11648;49.306;6.934;2023-05-24T00:17:32;98878.03;;;14.69;59.70
22964;BME280;11648;49.306;6.934;2023-05-24T00:20:00;98872.81;;;14.64;59.76
22964;BME280;11648;49.306;6.934;2023-05-24T00:22:27;98872.81;;;14.64;59.51
22964;BME280;11648;49.306;6.934;2023-05-24T00:24:53;98865.00;;;14.58;59.95
22964;BME280;11648;49.306;6.934;2023-05-24T00:27:20;98862.31;;;14.60;59.68
22964;BME280;11648;49.306;6.934;2023-05-24T00:29:47;98857.00;;;14.61;59.65
22964;BME280;11648;49.306;6.934;2023-05-24T00:32:13;98862.22;;;14.64;59.41
22964;BME280;11648;49.306;6.934;2023-05-24T00:34:40;98856.94;;;14.64;59.60
22964;BME280;11648;49.306;6.934;2023-05-24T00:37:07;98856.13;;;14.61;59.28
22964;BME280;11648;49.306;6.934;2023-05-24T00:39:34;98860.53;;;14.60;59.47
22964;BME280;11648;49.306;6.934;2023-05-24T00:42:01;98849.00;;;14.63;59.50
22964;BME280;11648;49.306;6.934;2023-05-24T00:44:28;98854.34;;;14.61;59.31
22964;BME280;11648;49.306;6.934;2023-05-24T00:46:55;98845.50;;;14.61;58.72
22964;BME280;11648;49.306;6.934;2023-05-24T00:49:22;98847.34;;;14.57;58.88
22964;BME280;11648;49.306;6.934;2023-05-24T00:51:50;98846.47;;;14.57;59.17
22964;BME280;11648;49.306;6.934;2023-05-24T00:54:18;98849.16;;;14.55;59.13
22964;BME280;11648;49.306;6.934;2023-05-24T00:56:45;98849.22;;;14.52;58.69
22964;BME280;11648;49.306;6.934;2023-05-24T00:59:13;98851.88;;;14.52;58.96
22964;BME280;11648;49.306;6.934;2023-05-24T01:01:40;98852.75;;;14.53;59.21
22964;BME280;11648;49.306;6.934;2023-05-24T01:04:07;98851.06;;;14.49;59.23
22964;BME280;11648;49.306;6.934;2023-05-24T01:06:43;98850.25;;;14.45;58.96
22964;BME280;11648;49.306;6.934;2023-05-24T01:09:27;98845.84;;;14.44;59.08
22964;BME280;11648;49.306;6.934;2023-05-24T01:14:59;98857.53;;;14.34;58.80
22964;BME280;11648;49.306;6.934;2023-05-24T01:18:01;98867.34;;;14.27;59.30
22964;BME280;11648;49.306;6.934;2023-05-24T01:20:32;98863.94;;;14.22;59.45
22964;BME280;11648;49.306;6.934;2023-05-24T01:23:04;98872.75;;;14.21;59.82
22964;BME280;11648;49.306;6.934;2023-05-24T01:28:18;98873.78;;;14.13;59.78
22964;BME280;11648;49.306;6.934;2023-05-24T01:30:46;98871.19;;;14.11;59.63
22964;BME280;11648;49.306;6.934;2023-05-24T01:33:14;98869.44;;;14.10;59.73
22964;BME280;11648;49.306;6.934;2023-05-24T01:35:41;98869.47;;;14.09;59.67
22964;BME280;11648;49.306;6.934;2023-05-24T01:38:09;98869.56;;;14.03;60.05
22964;BME280;11648;49.306;6.934;2023-05-24T01:40:40;98875.91;;;13.94;59.87
22964;BME280;11648;49.306;6.934;2023-05-24T01:43:32;98867.94;;;13.97;60.11
22964;BME280;11648;49.306;6.934;2023-05-24T01:46:18;98874.88;;;14.01;60.20
22964;BME280;11648;49.306;6.934;2023-05-24T01:49:02;98883.75;;;13.99;60.08
22964;BME280;11648;49.306;6.934;2023-05-24T01:51:37;98877.72;;;13.91;59.91
22964;BME280;11648;49.306;6.934;2023-05-24T01:54:08;98880.50;;;13.84;60.27
22964;BME280;11648;49.306;6.934;2023-05-24T01:56:38;98884.06;;;13.82;60.10
22964;BME280;11648;49.306;6.934;2023-05-24T01:59:06;98888.59;;;13.75;60.13
22964;BME280;11648;49.306;6.934;2023-05-24T02:01:34;98890.38;;;13.75;60.14
22964;BME280;11648;49.306;6.934;2023-05-24T02:04:01;98885.97;;;13.74;60.29
22964;BME280;11648;49.306;6.934;2023-05-24T02:06:28;98891.44;;;13.63;60.68
22964;BME280;11648;49.306;6.934;2023-05-24T02:08:55;98886.28;;;13.54;60.59
22964;BME280;11648;49.306;6.934;2023-05-24T02:11:22;98887.25;;;13.50;61.04
22964;BME280;11648;49.306;6.934;2023-05-24T02:13:48;98884.63;;;13.47;60.93
22964;BME280;11648;49.306;6.934;2023-05-24T02:16:15;98879.44;;;13.41;61.38
22964;BME280;11648;49.306;6.934;2023-05-24T02:18:43;98891.88;;;13.36;61.03
22964;BME280;11648;49.306;6.934;2023-05-24T02:21:12;98890.91;;;13.40;61.23
22964;BME280;11648;49.306;6.934;2023-05-24T02:23:42;98897.06;;;13.41;60.98
22964;BME280;11648;49.306;6.934;2023-05-24T02:26:09;98889.13;;;13.41;60.88
22964;BME280;11648;49.306;6.934;2023-05-24T02:28:38;98901.63;;;13.31;61.26
22964;BME280;11648;49.306;6.934;2023-05-24T02:31:04;98895.47;;;13.30;61.05
22964;BME280;11648;49.306;6.934;2023-05-24T02:33:31;98891.06;;;13.31;61.33
22964;BME280;11648;49.306;6.934;2023-05-24T02:35:59;98891.06;;;13.32;61.39
22964;BME280;11648;49.306;6.934;2023-05-24T02:38:26;98876.00;;;13.36;61.29
22964;BME280;11648;49.306;6.934;2023-05-24T02:40:52;98872.56;;;13.31;61.43
22964;BME280;11648;49.306;6.934;2023-05-24T02:43:19;98871.75;;;13.26;61.04
22964;BME280;11648;49.306;6.934;2023-05-24T02:45:46;98875.31;;;13.25;61.35
22964;BME280;11648;49.306;6.934;2023-05-24T02:48:13;98863.78;;;13.29;61.11
22964;BME280;11648;49.306;6.934;2023-05-24T02:50:39;98860.97;;;13.38;61.15
22964;BME280;11648;49.306;6.934;2023-05-24T02:53:06;98863.47;;;13.47;61.13
22964;BME280;11648;49.306;6.934;2023-05-24T02:55:34;98863.50;;;13.46;60.55
22964;BME280;11648;49.306;6.934;2023-05-24T02:58:01;98867.84;;;13.50;60.28
22964;BME280;11648;49.306;6.934;2023-05-24T03:00:29;98864.22;;;13.57;60.40
22964;BME280;11648;49.306;6.934;2023-05-24T03:02:57;98866.78;;;13.61;60.24
22964;BME280;11648;49.306;6.934;2023-05-24T03:05:28;98869.44;;;13.61;59.85
22964;BME280;11648;49.306;6.934;2023-05-24T03:07:54;98866.81;;;13.60;60.54
22964;BME280;11648;49.306;6.934;2023-05-24T03:10:22;98864.28;;;13.52;60.04
22964;BME280;11648;49.306;6.934;2023-05-24T03:12:49;98853.59;;;13.58;60.37
22964;BME280;11648;49.306;6.934;2023-05-24T03:15:15;98853.69;;;13.54;60.24
22964;BME280;11648;49.306;6.934;2023-05-24T03:17:42;98855.34;;;13.59;60.18
22964;BME280;11648;49.306;6.934;2023-05-24T03:20:09;98861.53;;;13.58;60.01
22964;BME280;11648;49.306;6.934;2023-05-24T03:22:37;98858.81;;;13.63;60.05
22964;BME280;11648;49.306;6.934;2023-05-24T03:25:04;98864.16;;;13.58;60.13
22964;BME280;11648;49.306;6.934;2023-05-24T03:27:35;98863.28;;;13.59;60.58
22964;BME280;11648;49.306;6.934;2023-05-24T03:30:02;98861.56;;;13.57;60.49
22964;BME280;11648;49.306;6.934;2023-05-24T03:32:33;98880.09;;;13.57;60.19
22964;BME280;11648;49.306;6.934;2023-05-24T03:35:00;98872.28;;;13.49;60.10
22964;BME280;11648;49.306;6.934;2023-05-24T03:37:28;98868.97;;;13.35;60.29
22964;BME280;11648;49.306;6.934;2023-05-24T03:39:54;98865.50;;;13.31;60.55
22964;BME280;11648;49.306;6.934;2023-05-24T03:42:41;98885.00;;;13.24;61.20
22964;BME280;11648;49.306;6.934;2023-05-24T03:45:09;98883.25;;;13.22;61.21
22964;BME280;11648;49.306;6.934;2023-05-24T03:47:36;98878.13;;;13.11;61.16
22964;BME280;11648;49.306;6.934;2023-05-24T03:50:03;98880.75;;;13.13;60.85
22964;BME280;11648;49.306;6.934;2023-05-24T03:52:30;98879.81;;;13.17;60.97
22964;BME280;11648;49.306;6.934;2023-05-24T03:54:57;98883.34;;;13.16;61.00
22964;BME280;11648;49.306;6.934;2023-05-24T03:57:24;98882.53;;;13.08;61.09
22964;BME280;11648;49.306;6.934;2023-05-24T03:59:51;98883.47;;;13.07;61.47
22964;BME280;11648;49.306;6.934;2023-05-24T04:02:18;98895.94;;;12.96;61.25
22964;BME280;11648;49.306;6.934;2023-05-24T04:04:44;98895.03;;;13.00;61.47
22964;BME280;11648;49.306;6.934;2023-05-24T04:07:12;98893.13;;;13.08;61.11
22964;BME280;11648;49.306;6.934;2023-05-24T04:09:41;98898.44;;;13.06;61.11
22964;BME280;11648;49.306;6.934;2023-05-24T04:12:08;98900.16;;;13.12;60.49
22964;BME280;11648;49.306;6.934;2023-05-24T04:14:35;98895.78;;;13.11;61.17
22964;BME280;11648;49.306;6.934;2023-05-24T04:17:02;98894.78;;;13.18;60.77
22964;BME280;11648;49.306;6.934;2023-05-24T04:19:31;98905.28;;;13.24;60.65
22964;BME280;11648;49.306;6.934;2023-05-24T04:21:58;98897.28;;;13.27;60.02
22964;BME280;11648;49.306;6.934;2023-05-24T04:24:25;98901.69;;;13.28;59.90
22964;BME280;11648;49.306;6.934;2023-05-24T04:26:52;98903.19;;;13.44;59.88
22964;BME280;11648;49.306;6.934;2023-05-24T04:29:18;98898.78;;;13.45;59.61
22964;BME280;11648;49.306;6.934;2023-05-24T04:31:45;98899.59;;;13.48;59.57
22964;BME280;11648;49.306;6.934;2023-05-24T04:34:14;98890.72;;;13.52;59.11
22964;BME280;11648;49.306;6.934;2023-05-24T04:36:41;98899.81;;;13.36;59.34
22964;BME280;11648;49.306;6.934;2023-05-24T04:39:09;98900.75;;;13.32;59.57
22964;BME280;11648;49.306;6.934;2023-05-24T04:41:36;98891.88;;;13.36;59.19
22964;BME280;11648;49.306;6.934;2023-05-24T04:44:04;98891.66;;;13.48;59.34
22964;BME280;11648;49.306;6.934;2023-05-24T04:46:30;98879.31;;;13.49;58.51
22964;BME280;11648;49.306;6.934;2023-05-24T04:48:57;98883.59;;;13.57;58.68
22964;BME280;11648;49.306;6.934;2023-05-24T04:51:24;98883.31;;;13.74;59.05
22964;BME280;11648;49.306;6.934;2023-05-24T04:53:51;98885.00;;;13.78;58.57
22964;BME280;11648;49.306;6.934;2023-05-24T04:56:18;98876.03;;;13.86;58.00
22964;BME280;11648;49.306;6.934;2023-05-24T04:58:46;98881.38;;;13.85;57.42
22964;BME280;11648;49.306;6.934;2023-05-24T05:01:13;98881.19;;;13.96;57.70
22964;BME280;11648;49.306;6.934;2023-05-24T05:03:39;98876.88;;;13.90;57.35
22964;BME280;11648;49.306;6.934;2023-05-24T05:06:07;98874.31;;;13.85;57.56
22964;BME280;11648;49.306;6.934;2023-05-24T05:08:33;98876.81;;;13.93;58.04
22964;BME280;11648;49.306;6.934;2023-05-24T05:11:00;98872.41;;;13.92;57.22
22964;BME280;11648;49.306;6.934;2023-05-24T05:13:28;98875.88;;;13.96;57.18
22964;BME280;11648;49.306;6.934;2023-05-24T05:15:55;98877.31;;;14.13;57.35
22964;BME280;11648;49.306;6.934;2023-05-24T05:18:21;98879.66;;;14.30;57.09
22964;BME280;11648;49.306;6.934;2023-05-24T05:20:48;98878.69;;;14.36;56.31
22964;BME280;11648;49.306;6.934;2023-05-24T05:23:15;98880.19;;;14.49;55.99
22964;BME280;11648;49.306;6.934;2023-05-24T05:25:41;98890.50;;;14.64;56.23
22964;BME280;11648;49.306;6.934;2023-05-24T05:28:08;98877.91;;;14.75;55.33
22964;BME280;11648;49.306;6.934;2023-05-24T05:30:35;98877.47;;;14.95;55.01
22964;BME280;11648;49.306;6.934;2023-05-24T05:33:02;98880.09;;;15.34;54.49
22964;BME280;11648;49.306;6.934;2023-05-24T05:35:31;98879.66;;;15.54;53.89
22964;BME280;11648;49.306;6.934;2023-05-24T05:37:58;98873.91;;;15.72;53.01
22964;BME280;11648;49.306;6.934;2023-05-24T05:40:25;98877.72;;;15.62;52.26
22964;BME280;11648;49.306;6.934;2023-05-24T05:42:52;98875.00;;;15.64;52.28
22964;BME280;11648;49.306;6.934;2023-05-24T05:45:19;98873.66;;;15.81;52.26
22964;BME280;11648;49.306;6.934;2023-05-24T05:47:45;98868.41;;;15.80;51.63
22964;BME280;11648;49.306;6.934;2023-05-24T05:50:12;98864.34;;;15.99;51.48
22964;BME280;11648;49.306;6.934;2023-05-24T05:52:39;98868.28;;;16.17;50.90
22964;BME280;11648;49.306;6.934;2023-05-24T05:55:07;98877.03;;;16.22;50.75
22964;BME280;11648;49.306;6.934;2023-05-24T05:57:34;98872.22;;;16.36;49.94
22964;BME280;11648;49.306;6.934;2023-05-24T06:00:01;98882.44;;;16.51;49.47
22964;BME280;11648;49.306;6.934;2023-05-24T06:02:37;98879.75;;;16.84;48.81
22964;BME280;11648;49.306;6.934;2023-05-24T06:05:04;98881.56;;;17.11;47.93
22964;BME280;11648;49.306;6.934;2023-05-24T06:07:31;98869.03;;;17.42;47.01
22964;BME280;11648;49.306;6.934;2023-05-24T06:09:58;98870.91;;;17.68;47.12
22964;BME280;11648;49.306;6.934;2023-05-24T06:12:25;98866.00;;;17.82;46.08
22964;BME280;11648;49.306;6.934;2023-05-24T06:14:52;98858.97;;;17.80;46.06
22964;BME280;11648;49.306;6.934;2023-05-24T06:17:19;98863.69;;;17.98;45.30
22964;BME280;11648;49.306;6.934;2023-05-24T06:19:50;98856.94;;;18.14;45.00
22964;BME280;11648;49.306;6.934;2023-05-24T06:22:19;98860.28;;;18.19;44.18
22964;BME280;11648;49.306;6.934;2023-05-24T06:24:47;98852.16;;;18.47;43.96
22964;BME280;11648;49.306;6.934;2023-05-24T06:27:14;98846.19;;;18.65;43.79
22964;BME280;11648;49.306;6.934;2023-05-24T06:29:41;98854.84;;;18.95;43.52
22964;BME280;11648;49.306;6.934;2023-05-24T06:32:08;98853.53;;;19.28;42.61
22964;BME280;11648;49.306;6.934;2023-05-24T06:34:34;98852.72;;;19.26;41.49
22964;BME280;11648;49.306;6.934;2023-05-24T06:37:02;98854.44;;;19.50;41.68
22964;BME280;11648;49.306;6.934;2023-05-24T06:39:29;98864.75;;;19.36;41.59
22964;BME280;11648;49.306;6.934;2023-05-24T06:41:56;98858.66;;;19.33;41.47
22964;BME280;11648;49.306;6.934;2023-05-24T06:44:23;98857.59;;;19.60;40.87
22964;BME280;11648;49.306;6.934;2023-05-24T06:46:57;98850.56;;;19.36;40.69
22964;BME280;11648;49.306;6.934;2023-05-24T06:49:24;98852.56;;;19.29;40.05
22964;BME280;11648;49.306;6.934;2023-05-24T06:51:51;98854.28;;;19.32;40.03
22964;BME280;11648;49.306;6.934;2023-05-24T06:54:18;98851.13;;;19.44;39.25
22964;BME280;11648;49.306;6.934;2023-05-24T06:56:45;98849.56;;;19.82;39.38
22964;BME280;11648;49.306;6.934;2023-05-24T06:59:12;98845.84;;;19.86;38.25
22964;BME280;11648;49.306;6.934;2023-05-24T07:01:39;98848.34;;;20.10;37.84
22964;BME280;11648;49.306;6.934;2023-05-24T07:04:08;98855.50;;;20.10;38.68
22964;BME280;11648;49.306;6.934;2023-05-24T07:06:35;98856.97;;;19.97;38.59
22964;BME280;11648;49.306;6.934;2023-05-24T07:09:03;98852.94;;;20.29;38.27
22964;BME280;11648;49.306;6.934;2023-05-24T07:11:30;98840.94;;;20.57;35.88
22964;BME280;11648;49.306;6.934;2023-05-24T07:13:57;98842.16;;;20.50;37.09
22964;BME280;11648;49.306;6.934;2023-05-24T07:16:24;98844.81;;;20.30;35.61
22964;BME280;11648;49.306;6.934;2023-05-24T07:18:51;98853.53;;;20.35;36.09
22964;BME280;11648;49.306;6.934;2023-05-24T07:21:17;98856.41;;;20.09;35.11
22964;BME280;11648;49.306;6.934;2023-05-24T07:23:44;98860.56;;;20.16;36.09
22964;BME280;11648;49.306;6.934;2023-05-24T07:26:11;98865.06;;;19.94;36.21
22964;BME280;11648;49.306;6.934;2023-05-24T07:28:38;98869.31;;;19.99;36.03
22964;BME280;11648;49.306;6.934;2023-05-24T07:31:07;98863.34;;;19.93;36.46
22964;BME280;11648;49.306;6.934;2023-05-24T07:33:36;98874.66;;;20.19;37.19
22964;BME280;11648;49.306;6.934;2023-05-24T07:36:04;98872.56;;;20.48;36.21
22964;BME280;11648;49.306;6.934;2023-05-24T07:38:32;98874.44;;;20.46;35.46
22964;BME280;11648;49.306;6.934;2023-05-24T07:41:01;98863.63;;;20.29;34.41
22964;BME280;11648;49.306;6.934;2023-05-24T07:43:32;98867.19;;;20.07;34.19
22964;BME280;11648;49.306;6.934;2023-05-24T07:45:58;98853.31;;;20.40;33.79
22964;BME280;11648;49.306;6.934;2023-05-24T07:48:25;98867.88;;;20.53;35.18
22964;BME280;11648;49.306;6.934;2023-05-24T07:50:52;98867.97;;;21.09;34.45
22964;BME280;11648;49.306;6.934;2023-05-24T07:53:20;98861.41;;;21.35;33.30
22964;BME280;11648;49.306;6.934;2023-05-24T07:55:48;98856.41;;;21.46;32.51
22964;BME280;11648;49.306;6.934;2023-05-24T07:58:15;98853.84;;;21.61;31.96
22964;BME280;11648;49.306;6.934;2023-05-24T08:00:42;98854.72;;;21.62;32.23
22964;BME280;11648;49.306;6.934;2023-05-24T08:03:09;98847.84;;;22.09;32.06
22964;BME280;11648;49.306;6.934;2023-05-24T08:05:40;98848.47;;;21.80;31.36
22964;BME280;11648;49.306;6.934;2023-05-24T08:08:07;98845.00;;;21.95;31.29
22964;BME280;11648;49.306;6.934;2023-05-24T08:10:33;98844.72;;;22.19;30.41
22964;BME280;11648;49.306;6.934;2023-05-24T08:13:00;98844.72;;;22.19;30.61
22964;BME280;11648;49.306;6.934;2023-05-24T08:15:27;98855.75;;;22.30;31.16
22964;BME280;11648;49.306;6.934;2023-05-24T08:17:54;98847.00;;;22.09;30.54
22964;BME280;11648;49.306;6.934;2023-05-24T08:20:21;98845.03;;;22.30;29.97
22964;BME280;11648;49.306;6.934;2023-05-24T08:22:50;98834.06;;;22.00;29.70
22964;BME280;11648;49.306;6.934;2023-05-24T08:25:20;98835.06;;;22.32;28.42
22964;BME280;11648;49.306;6.934;2023-05-24T08:27:47;98835.31;;;22.44;27.50
22964;BME280;11648;49.306;6.934;2023-05-24T08:30:13;98829.66;;;22.66;27.51
22964;BME280;11648;49.306;6.934;2023-05-24T08:32:40;98833.88;;;22.72;27.33
22964;BME280;11648;49.306;6.934;2023-05-24T08:35:07;98832.69;;;22.77;27.07
22964;BME280;11648;49.306;6.934;2023-05-24T08:37:47;98836.34;;;23.07;26.35
22964;BME280;11648;49.306;6.934;2023-05-24T08:40:14;98823.09;;;23.04;26.89
22964;BME280;11648;49.306;6.934;2023-05-24T08:42:41;98822.81;;;23.42;26.86
22964;BME280;11648;49.306;6.934;2023-05-24T08:45:11;98829.09;;;23.09;26.64
22964;BME280;11648;49.306;6.934;2023-05-24T08:47:39;98825.53;;;23.72;26.42
22964;BME280;11648;49.306;6.934;2023-05-24T08:50:06;98822.09;;;23.99;25.46
22964;BME280;11648;49.306;6.934;2023-05-24T08:52:35;98826.50;;;24.16;25.07
22964;BME280;11648;49.306;6.934;2023-05-24T08:55:05;98824.75;;;24.59;24.95
22964;BME280;11648;49.306;6.934;2023-05-24T08:57:32;98812.09;;;25.44;25.85
22964;BME280;11648;49.306;6.934;2023-05-24T09:00:01;98815.53;;;25.87;23.92
22964;BME280;11648;49.306;6.934;2023-05-24T09:02:29;98852.09;;;25.79;24.64
22964;BME280;11648;49.306;6.934;2023-05-24T09:04:58;98848.16;;;25.70;24.15
22964;BME280;11648;49.306;6.934;2023-05-24T09:07:28;98858.69;;;25.61;23.56
22964;BME280;11648;49.306;6.934;2023-05-24T09:10:07;98852.91;;;25.79;22.97
22964;BME280;11648;49.306;6.934;2023-05-24T09:12:35;98839.00;;;26.39;23.50
22964;BME280;11648;49.306;6.934;2023-05-24T09:15:07;98832.41;;;27.19;22.85
22964;BME280;11648;49.306;6.934;2023-05-24T09:17:35;98830.69;;;26.80;23.30
22964;BME280;11648;49.306;6.934;2023-05-24T09:20:04;98838.16;;;27.01;22.67
22964;BME280;11648;49.306;6.934;2023-05-24T09:22:36;98825.41;;;27.53;23.62
22964;BME280;11648;49.306;6.934;2023-05-24T09:25:09;98827.91;;;28.03;22.60
22964;BME280;11648;49.306;6.934;2023-05-24T09:27:36;98823.56;;;28.59;22.83
22964;BME280;11648;49.306;6.934;2023-05-24T09:30:09;98826.16;;;29.61;21.93
22964;BME280;11648;49.306;6.934;2023-05-24T09:32:37;98811.03;;;30.01;20.28
22964;BME280;11648;49.306;6.934;2023-05-24T09:35:08;98816.44;;;30.54;20.38
22964;BME280;11648;49.306;6.934;2023-05-24T09:37:36;98791.91;;;31.25;19.57
22964;BME280;11648;49.306;6.934;2023-05-24T09:40:16;98825.59;;;31.64;19.50
22964;BME280;11648;49.306;6.934;2023-05-24T09:42:48;98847.56;;;31.82;19.49
22964;BME280;11648;49.306;6.934;2023-05-24T09:45:19;98849.41;;;31.91;19.35
22964;BME280;11648;49.306;6.934;2023-05-24T09:47:46;98852.06;;;32.69;18.26
22964;BME280;11648;49.306;6.934;2023-05-24T09:50:14;98843.22;;;33.04;17.64
22964;BME280;11648;49.306;6.934;2023-05-24T09:52:43;98844.41;;;32.92;18.10
22964;BME280;11648;49.306;6.934;2023-05-24T09:55:18;98842.84;;;33.36;17.16
22964;BME280;11648;49.306;6.934;2023-05-24T09:58:01;98834.22;;;33.68;16.53
22964;BME280;11648;49.306;6.934;2023-05-24T10:00:37;98832.38;;;34.75;15.79
22964;BME280;11648;49.306;6.934;2023-05-24T10:03:11;98831.50;;;34.31;15.84
22964;BME280;11648;49.306;6.934;2023-05-24T10:05:41;98830.88;;;34.19;16.45
22964;BME280;11648;49.306;6.934;2023-05-24T10:08:10;98828.78;;;34.03;15.84
22964;BME280;11648;49.306;6.934;2023-05-24T10:10:37;98827.81;;;33.22;16.75
22964;BME280;11648;49.306;6.934;2023-05-24T10:13:04;98838.72;;;32.76;16.17
22964;BME280;11648;49.306;6.934;2023-05-24T10:15:30;98835.09;;;32.85;16.83
22964;BME280;11648;49.306;6.934;2023-05-24T10:17:57;98828.47;;;32.97;16.29
22964;BME280;11648;49.306;6.934;2023-05-24T10:20:37;98827.22;;;33.28;17.28
22964;BME280;11648;49.306;6.934;2023-05-24T10:23:09;98820.22;;;33.98;15.28
22964;BME280;11648;49.306;6.934;2023-05-24T10:25:40;98819.94;;;33.47;16.31
22964;BME280;11648;49.306;6.934;2023-05-24T10:28:10;98822.22;;;34.49;16.05
22964;BME280;11648;49.306;6.934;2023-05-24T10:30:48;98821.75;;;34.71;16.36
22964;BME280;11648;49.306;6.934;2023-05-24T10:33:18;98807.94;;;35.07;15.20
22964;BME280;11648;49.306;6.934;2023-05-24T10:35:47;98818.69;;;36.18;14.23
22964;BME280;11648;49.306;6.934;2023-05-24T10:38:14;98805.81;;;36.83;14.61
22964;BME280;11648;49.306;6.934;2023-05-24T10:40:41;98806.88;;;36.74;13.75
22964;BME280;11648;49.306;6.934;2023-05-24T10:43:09;98795.22;;;36.72;13.47
22964;BME280;11648;49.306;6.934;2023-05-24T10:45:39;98812.38;;;36.74;14.23
22964;BME280;11648;49.306;6.934;2023-05-24T10:50:54;98806.84;;;34.66;13.93
22964;BME280;11648;49.306;6.934;2023-05-24T10:53:22;98802.97;;;33.98;14.67
22964;BME280;11648;49.306;6.934;2023-05-24T10:58:44;98815.31;;;33.20;16.26
22964;BME280;11648;49.306;6.934;2023-05-24T11:01:25;98809.94;;;34.97;14.57
22964;BME280;11648;49.306;6.934;2023-05-24T11:04:15;98801.13;;;35.37;14.54
22964;BME280;11648;49.306;6.934;2023-05-24T11:09:29;98790.00;;;35.96;14.82
22964;BME280;11648;49.306;6.934;2023-05-24T11:12:02;98789.03;;;36.38;14.38
22964;BME280;11648;49.306;6.934;2023-05-24T11:14:30;98791.28;;;36.67;13.44
22964;BME280;11648;49.306;6.934;2023-05-24T11:16:57;98787.63;;;36.90;14.19
22964;BME280;11648;49.306;6.934;2023-05-24T11:19:34;98779.06;;;37.40;12.86
22964;BME280;11648;49.306;6.934;2023-05-24T11:22:12;98770.66;;;36.79;13.03
22964;BME280;11648;49.306;6.934;2023-05-24T11:24:40;98760.22;;;36.50;13.96
22964;BME280;11648;49.306;6.934;2023-05-24T11:27:10;98774.81;;;37.30;14.06
22964;BME280;11648;49.306;6.934;2023-05-24T11:29:42;98768.81;;;37.65;12.56
22964;BME280;11648;49.306;6.934;2023-05-24T11:32:09;98767.13;;;38.18;12.59
22964;BME280;11648;49.306;6.934;2023-05-24T11:34:40;98775.50;;;38.84;12.63
22964;BME280;11648;49.306;6.934;2023-05-24T11:37:07;98773.59;;;38.85;12.20
22964;BME280;11648;49.306;6.934;2023-05-24T11:39:35;98763.44;;;39.59;12.36
22964;BME280;11648;49.306;6.934;2023-05-24T11:42:03;98773.63;;;38.25;12.33
22964;BME280;11648;49.306;6.934;2023-05-24T11:44:31;98771.38;;;37.75;13.59
22964;BME280;11648;49.306;6.934;2023-05-24T11:47:01;98775.19;;;37.27;13.74
22964;BME280;11648;49.306;6.934;2023-05-24T11:49:28;98768.22;;;37.55;13.25
22964;BME280;11648;49.306;6.934;2023-05-24T11:51:56;98772.19;;;38.51;12.17
22964;BME280;11648;49.306;6.934;2023-05-24T11:54:25;98769.53;;;37.67;12.60
22964;BME280;11648;49.306;6.934;2023-05-24T11:56:53;98767.34;;;37.85;13.48
22964;BME280;11648;49.306;6.934;2023-05-24T11:59:25;98765.28;;;37.18;12.79
22964;BME280;11648;49.306;6.934;2023-05-24T12:02:00;98765.03;;;36.72;12.58
22964;BME280;11648;49.306;6.934;2023-05-24T12:04:28;98769.44;;;35.34;13.36
22964;BME280;11648;49.306;6.934;2023-05-24T12:06:56;98773.69;;;33.90;13.84
22964;BME280;11648;49.306;6.934;2023-05-24T12:09:24;98772.59;;;32.36;14.19
22964;BME280;11648;49.306;6.934;2023-05-24T12:11:51;98774.16;;;32.38;15.83
22964;BME280;11648;49.306;6.934;2023-05-24T12:14:24;98772.84;;;31.56;15.92
22964;BME280;11648;49.306;6.934;2023-05-24T12:16:54;98775.59;;;30.23;17.16
22964;BME280;11648;49.306;6.934;2023-05-24T12:19:22;98780.34;;;30.42;17.56
22964;BME280;11648;49.306;6.934;2023-05-24T12:22:04;98778.53;;;28.91;17.14
22964;BME280;11648;49.306;6.934;2023-05-24T12:24:32;98780.22;;;27.89;17.69
22964;BME280;11648;49.306;6.934;2023-05-24T12:27:01;98778.59;;;27.76;18.85
22964;BME280;11648;49.306;6.934;2023-05-24T12:29:35;98780.59;;;27.61;20.18
22964;BME280;11648;49.306;6.934;2023-05-24T12:32:03;98784.03;;;28.11;21.16
22964;BME280;11648;49.306;6.934;2023-05-24T12:34:31;98773.41;;;27.00;18.73
22964;BME280;11648;49.306;6.934;2023-05-24T12:36:58;98776.88;;;27.38;20.01
22964;BME280;11648;49.306;6.934;2023-05-24T12:39:26;98776.19;;;27.95;21.42
22964;BME280;11648;49.306;6.934;2023-05-24T12:41:58;98777.72;;;27.75;22.09
22964;BME280;11648;49.306;6.934;2023-05-24T12:44:32;98771.66;;;27.12;21.28
22964;BME280;11648;49.306;6.934;2023-05-24T12:47:01;98778.28;;;26.44;21.48
22964;BME280;11648;49.306;6.934;2023-05-24T12:49:30;98774.69;;;25.67;22.89
22964;BME280;11648;49.306;6.934;2023-05-24T12:51:57;98789.44;;;25.20;24.59
22964;BME280;11648;49.306;6.934;2023-05-24T12:54:26;98777.72;;;24.79;23.97
22964;BME280;11648;49.306;6.934;2023-05-24T12:56:54;98777.53;;;24.82;25.31
22964;BME280;11648;49.306;6.934;2023-05-24T12:59:24;98782.91;;;24.53;24.88
22964;BME280;11648;49.306;6.934;2023-05-24T13:01:51;98777.16;;;24.74;25.74
22964;BME280;11648;49.306;6.934;2023-05-24T13:04:20;98787.03;;;24.45;25.82
22964;BME280;11648;49.306;6.934;2023-05-24T13:06:48;98777.34;;;24.71;25.48
22964;BME280;11648;49.306;6.934;2023-05-24T13:09:15;98787.28;;;24.84;25.62
22964;BME280;11648;49.306;6.934;2023-05-24T13:11:46;98774.53;;;25.00;24.53
22964;BME280;11648;49.306;6.934;2023-05-24T13:14:13;98766.53;;;25.40;26.35
22964;BME280;11648;49.306;6.934;2023-05-24T13:16:42;98767.16;;;25.72;24.08
22964;BME280;11648;49.306;6.934;2023-05-24T13:19:10;98763.00;;;25.93;25.54
22964;BME280;11648;49.306;6.934;2023-05-24T13:21:37;98763.00;;;25.93;24.55